sensor_id;sensor_type;location;lat;lon;timestamp;pressure;altitude;pressure_sealevel;temperature;humidity
59493;BME280;45497;43.996;22.876;2022-09-16T00:01:28;100214.84;;;28.18;29.71
59493;BME280;45497;43.996;22.876;2022-09-16T00:03:54;100213.00;;;28.14;29.83
59493;BME280;45497;43.996;22.876;2022-09-16T00:08:28;100218.75;;;28.12;29.95
59493;BME280;45497;43.996;22.876;2022-09-16T00:10:59;100212.00;;;28.10;29.96
59493;BME280;45497;43.996;22.876;2022-09-16T00:13:24;100205.63;;;28.00;30.11
59493;BME280;45497;43.996;22.876;2022-09-16T00:15:49;100215.69;;;28.00;30.23
59493;BME280;45497;43.996;22.876;2022-09-16T00:18:15;100220.72;;;27.93;30.83
59493;BME280;45497;43.996;22.876;2022-09-16T00:20:48;100231.31;;;27.94;30.67
59493;BME280;45497;43.996;22.876;2022-09-16T00:23:14;100223.19;;;27.89;30.75
59493;BME280;45497;43.996;22.876;2022-09-16T00:25:40;100222.19;;;27.85;30.85
59493;BME280;45497;43.996;22.876;2022-09-16T00:28:06;100220.88;;;27.82;30.71
59493;BME280;45497;43.996;22.876;2022-09-16T00:30:32;100223.66;;;27.77;31.26
59493;BME280;45497;43.996;22.876;2022-09-16T00:34:20;100244.44;;;27.73;31.32
59493;BME280;45497;43.996;22.876;2022-09-16T00:36:45;100243.09;;;27.71;31.35
59493;BME280;45497;43.996;22.876;2022-09-16T00:39:11;100236.13;;;27.64;31.72
59493;BME280;45497;43.996;22.876;2022-09-16T00:41:36;100235.13;;;27.60;31.63
59493;BME280;45497;43.996;22.876;2022-09-16T00:44:05;100242.00;;;27.53;31.99
59493;BME280;45497;43.996;22.876;2022-09-16T00:51:32;100245.19;;;27.41;32.44
59493;BME280;45497;43.996;22.876;2022-09-16T00:54:00;100243.56;;;27.40;32.37
59493;BME280;45497;43.996;22.876;2022-09-16T00:58:03;100255.88;;;27.37;32.73
59493;BME280;45497;43.996;22.876;2022-09-16T01:00:29;100255.13;;;27.32;32.98
59493;BME280;45497;43.996;22.876;2022-09-16T01:02:55;100249.75;;;27.26;32.81
59493;BME280;45497;43.996;22.876;2022-09-16T01:05:22;100240.00;;;27.20;33.36
59493;BME280;45497;43.996;22.876;2022-09-16T01:08:36;100241.69;;;27.16;33.27
59493;BME280;45497;43.996;22.876;2022-09-16T01:15:16;100253.53;;;27.06;33.23
59493;BME280;45497;43.996;22.876;2022-09-16T01:18:56;100263.28;;;27.07;33.23
59493;BME280;45497;43.996;22.876;2022-09-16T01:23:51;100248.31;;;27.10;32.98
59493;BME280;45497;43.996;22.876;2022-09-16T01:32:53;100244.47;;;27.11;32.50
59493;BME280;45497;43.996;22.876;2022-09-16T01:35:32;100246.91;;;27.13;32.70
59493;BME280;45497;43.996;22.876;2022-09-16T01:38:10;100252.06;;;27.14;32.42
59493;BME280;45497;43.996;22.876;2022-09-16T01:40:48;100275.38;;;27.20;32.39
59493;BME280;45497;43.996;22.876;2022-09-16T01:48:22;100280.81;;;27.20;32.62
59493;BME280;45497;43.996;22.876;2022-09-16T01:56:45;100292.19;;;27.03;33.15
59493;BME280;45497;43.996;22.876;2022-09-16T01:59:26;100293.94;;;26.94;33.50
59493;BME280;45497;43.996;22.876;2022-09-16T02:03:51;100289.16;;;26.81;33.95
59493;BME280;45497;43.996;22.876;2022-09-16T02:06:22;100305.94;;;26.88;34.04
59493;BME280;45497;43.996;22.876;2022-09-16T02:12:07;100322.91;;;26.80;34.42
59493;BME280;45497;43.996;22.876;2022-09-16T02:15:17;100321.34;;;26.74;34.40
59493;BME280;45497;43.996;22.876;2022-09-16T02:17:50;100325.50;;;26.66;34.74
59493;BME280;45497;43.996;22.876;2022-09-16T02:20:22;100326.59;;;26.65;35.10
59493;BME280;45497;43.996;22.876;2022-09-16T02:22:55;100322.28;;;26.59;35.16
59493;BME280;45497;43.996;22.876;2022-09-16T02:25:23;100312.19;;;26.59;35.34
59493;BME280;45497;43.996;22.876;2022-09-16T02:27:50;100302.22;;;26.55;35.40
59493;BME280;45497;43.996;22.876;2022-09-16T02:30:19;100301.09;;;26.56;35.54
59493;BME280;45497;43.996;22.876;2022-09-16T02:32:48;100305.22;;;26.53;35.35
59493;BME280;45497;43.996;22.876;2022-09-16T02:35:18;100304.69;;;26.51;35.31
59493;BME280;45497;43.996;22.876;2022-09-16T02:40:27;100328.06;;;26.47;35.75
59493;BME280;45497;43.996;22.876;2022-09-16T02:43:28;100318.59;;;26.44;35.85
59493;BME280;45497;43.996;22.876;2022-09-16T02:53:27;100317.03;;;26.38;35.94
59493;BME280;45497;43.996;22.876;2022-09-16T02:56:01;100320.84;;;26.37;35.73
59493;BME280;45497;43.996;22.876;2022-09-16T02:58:30;100310.25;;;26.36;36.11
59493;BME280;45497;43.996;22.876;2022-09-16T03:00:56;100318.69;;;26.34;35.95
59493;BME280;45497;43.996;22.876;2022-09-16T03:03:22;100311.94;;;26.31;36.02
59493;BME280;45497;43.996;22.876;2022-09-16T03:08:34;100322.00;;;26.31;36.56
59493;BME280;45497;43.996;22.876;2022-09-16T03:11:11;100325.22;;;26.33;36.58
59493;BME280;45497;43.996;22.876;2022-09-16T03:22:13;100302.00;;;26.17;36.69
59493;BME280;45497;43.996;22.876;2022-09-16T03:29:37;100328.34;;;26.16;37.36
59493;BME280;45497;43.996;22.876;2022-09-16T03:32:12;100341.66;;;26.18;37.08
59493;BME280;45497;43.996;22.876;2022-09-16T03:34:51;100338.41;;;26.16;37.43
59493;BME280;45497;43.996;22.876;2022-09-16T03:37:31;100350.13;;;26.11;37.71
59493;BME280;45497;43.996;22.876;2022-09-16T03:40:05;100363.16;;;26.09;37.96
59493;BME280;45497;43.996;22.876;2022-09-16T03:44:11;100374.66;;;26.01;37.98
59493;BME280;45497;43.996;22.876;2022-09-16T03:47:31;100378.44;;;26.00;38.15
59493;BME280;45497;43.996;22.876;2022-09-16T03:49:57;100370.91;;;25.86;38.32
59493;BME280;45497;43.996;22.876;2022-09-16T03:52:22;100381.31;;;25.69;38.70
59493;BME280;45497;43.996;22.876;2022-09-16T03:55:47;100381.03;;;25.70;38.91
59493;BME280;45497;43.996;22.876;2022-09-16T03:58:13;100379.13;;;25.66;38.89
59493;BME280;45497;43.996;22.876;2022-09-16T04:00:39;100381.06;;;25.65;39.25
59493;BME280;45497;43.996;22.876;2022-09-16T04:03:04;100385.69;;;25.65;39.35
59493;BME280;45497;43.996;22.876;2022-09-16T04:05:30;100389.75;;;25.62;39.43
59493;BME280;45497;43.996;22.876;2022-09-16T04:07:55;100387.34;;;25.55;39.71
59493;BME280;45497;43.996;22.876;2022-09-16T04:10:39;100383.00;;;25.49;40.07
59493;BME280;45497;43.996;22.876;2022-09-16T04:13:05;100392.59;;;25.21;40.45
59493;BME280;45497;43.996;22.876;2022-09-16T04:15:30;100391.56;;;25.02;40.88
59493;BME280;45497;43.996;22.876;2022-09-16T04:17:56;100390.22;;;24.94;41.23
59493;BME280;45497;43.996;22.876;2022-09-16T04:20:21;100382.34;;;24.92;41.65
59493;BME280;45497;43.996;22.876;2022-09-16T04:22:48;100373.97;;;24.94;41.90
59493;BME280;45497;43.996;22.876;2022-09-16T04:25:13;100383.16;;;24.98;42.07
59493;BME280;45497;43.996;22.876;2022-09-16T04:27:39;100379.34;;;25.04;42.22
59493;BME280;45497;43.996;22.876;2022-09-16T04:30:05;100380.91;;;25.21;41.83
59493;BME280;45497;43.996;22.876;2022-09-16T04:32:30;100387.47;;;25.25;41.86
59493;BME280;45497;43.996;22.876;2022-09-16T04:34:56;100390.97;;;25.30;42.03
59493;BME280;45497;43.996;22.876;2022-09-16T04:37:21;100394.19;;;25.37;42.01
59493;BME280;45497;43.996;22.876;2022-09-16T04:39:47;100389.22;;;25.55;41.76
59493;BME280;45497;43.996;22.876;2022-09-16T04:42:12;100384.00;;;25.74;41.48
59493;BME280;45497;43.996;22.876;2022-09-16T04:44:38;100386.34;;;25.96;41.53
59493;BME280;45497;43.996;22.876;2022-09-16T04:47:04;100390.25;;;26.24;41.17
59493;BME280;45497;43.996;22.876;2022-09-16T04:49:29;100382.78;;;26.40;41.05
59493;BME280;45497;43.996;22.876;2022-09-16T04:51:55;100378.06;;;26.51;40.36
59493;BME280;45497;43.996;22.876;2022-09-16T04:54:20;100382.78;;;26.75;40.32
59493;BME280;45497;43.996;22.876;2022-09-16T04:56:46;100390.50;;;26.92;39.66
59493;BME280;45497;43.996;22.876;2022-09-16T04:59:11;100379.53;;;27.02;39.89
59493;BME280;45497;43.996;22.876;2022-09-16T05:01:37;100389.56;;;27.31;39.39
59493;BME280;45497;43.996;22.876;2022-09-16T05:04:05;100390.59;;;27.59;38.56
59493;BME280;45497;43.996;22.876;2022-09-16T05:06:38;100383.91;;;27.89;38.17
59493;BME280;45497;43.996;22.876;2022-09-16T05:09:05;100386.00;;;28.16;37.74
59493;BME280;45497;43.996;22.876;2022-09-16T05:11:33;100382.06;;;28.41;37.30
59493;BME280;45497;43.996;22.876;2022-09-16T05:14:01;100385.91;;;28.59;37.00
59493;BME280;45497;43.996;22.876;2022-09-16T05:16:27;100381.06;;;28.70;36.57
59493;BME280;45497;43.996;22.876;2022-09-16T05:18:55;100378.56;;;28.88;36.18
59493;BME280;45497;43.996;22.876;2022-09-16T05:21:23;100375.34;;;29.13;35.83
59493;BME280;45497;43.996;22.876;2022-09-16T05:23:49;100370.22;;;29.26;35.82
59493;BME280;45497;43.996;22.876;2022-09-16T05:26:20;100374.88;;;29.39;35.46
59493;BME280;45497;43.996;22.876;2022-09-16T05:28:47;100374.13;;;29.47;35.30
59493;BME280;45497;43.996;22.876;2022-09-16T05:31:15;100387.69;;;29.66;35.21
59493;BME280;45497;43.996;22.876;2022-09-16T05:33:42;100388.94;;;29.97;34.61
59493;BME280;45497;43.996;22.876;2022-09-16T05:36:13;100377.09;;;30.24;34.17
59493;BME280;45497;43.996;22.876;2022-09-16T05:38:39;100370.63;;;30.65;33.42
59493;BME280;45497;43.996;22.876;2022-09-16T05:41:06;100365.16;;;30.96;32.92
59493;BME280;45497;43.996;22.876;2022-09-16T05:43:32;100361.25;;;31.29;32.64
59493;BME280;45497;43.996;22.876;2022-09-16T05:45:58;100353.78;;;31.60;32.15
59493;BME280;45497;43.996;22.876;2022-09-16T05:48:24;100366.84;;;31.98;31.11
59493;BME280;45497;43.996;22.876;2022-09-16T05:50:53;100367.00;;;32.28;31.05
59493;BME280;45497;43.996;22.876;2022-09-16T05:53:20;100373.25;;;32.55;30.42
59493;BME280;45497;43.996;22.876;2022-09-16T05:55:59;100371.25;;;32.82;30.16
59493;BME280;45497;43.996;22.876;2022-09-16T05:58:27;100370.31;;;33.16;29.65
59493;BME280;45497;43.996;22.876;2022-09-16T06:01:05;100374.34;;;33.48;29.09
59493;BME280;45497;43.996;22.876;2022-09-16T06:03:33;100370.41;;;33.79;28.61
59493;BME280;45497;43.996;22.876;2022-09-16T06:06:04;100379.59;;;34.04;28.30
59493;BME280;45497;43.996;22.876;2022-09-16T06:08:32;100377.56;;;34.35;27.76
59493;BME280;45497;43.996;22.876;2022-09-16T06:11:02;100384.28;;;34.58;27.59
59493;BME280;45497;43.996;22.876;2022-09-16T06:13:28;100379.75;;;34.75;27.28
59493;BME280;45497;43.996;22.876;2022-09-16T06:15:53;100378.50;;;34.84;27.22
59493;BME280;45497;43.996;22.876;2022-09-16T06:18:20;100376.81;;;35.17;26.77
59493;BME280;45497;43.996;22.876;2022-09-16T06:20:46;100378.97;;;35.48;25.89
59493;BME280;45497;43.996;22.876;2022-09-16T06:23:12;100378.31;;;35.92;25.61
59493;BME280;45497;43.996;22.876;2022-09-16T06:25:38;100374.50;;;36.25;25.15
59493;BME280;45497;43.996;22.876;2022-09-16T06:28:04;100374.59;;;36.88;23.94
59493;BME280;45497;43.996;22.876;2022-09-16T06:30:29;100366.19;;;37.33;23.34
59493;BME280;45497;43.996;22.876;2022-09-16T06:32:55;100386.75;;;38.49;21.97
59493;BME280;45497;43.996;22.876;2022-09-16T06:35:20;100374.94;;;39.78;20.70
59493;BME280;45497;43.996;22.876;2022-09-16T06:37:46;100378.44;;;40.87;19.56
59493;BME280;45497;43.996;22.876;2022-09-16T06:40:11;100374.66;;;41.76;18.56
59493;BME280;45497;43.996;22.876;2022-09-16T06:42:37;100354.53;;;42.44;17.74
59493;BME280;45497;43.996;22.876;2022-09-16T06:45:03;100344.59;;;42.97;17.31
59493;BME280;45497;43.996;22.876;2022-09-16T06:47:30;100340.16;;;43.14;17.07
59493;BME280;45497;43.996;22.876;2022-09-16T06:50:01;100345.16;;;43.77;16.23
59493;BME280;45497;43.996;22.876;2022-09-16T06:52:26;100343.09;;;44.47;16.03
59493;BME280;45497;43.996;22.876;2022-09-16T06:54:53;100333.47;;;45.01;15.23
59493;BME280;45497;43.996;22.876;2022-09-16T06:57:19;100337.03;;;45.05;15.15
59493;BME280;45497;43.996;22.876;2022-09-16T06:59:47;100327.22;;;44.86;15.35
59493;BME280;45497;43.996;22.876;2022-09-16T07:02:13;100325.66;;;44.33;15.26
59493;BME280;45497;43.996;22.876;2022-09-16T07:04:38;100326.19;;;43.28;16.76
59493;BME280;45497;43.996;22.876;2022-09-16T07:07:05;100320.97;;;41.76;18.17
59493;BME280;45497;43.996;22.876;2022-09-16T07:09:30;100327.97;;;40.82;18.77
59493;BME280;45497;43.996;22.876;2022-09-16T07:11:57;100332.09;;;40.13;19.45
59493;BME280;45497;43.996;22.876;2022-09-16T07:14:24;100334.03;;;39.45;20.29
59493;BME280;45497;43.996;22.876;2022-09-16T07:16:50;100335.22;;;38.90;20.96
59493;BME280;45497;43.996;22.876;2022-09-16T07:19:16;100345.31;;;38.75;21.01
59493;BME280;45497;43.996;22.876;2022-09-16T07:21:41;100347.84;;;38.18;21.30
59493;BME280;45497;43.996;22.876;2022-09-16T07:24:11;100352.56;;;37.98;21.64
59493;BME280;45497;43.996;22.876;2022-09-16T07:26:38;100350.34;;;37.49;21.83
59493;BME280;45497;43.996;22.876;2022-09-16T07:29:05;100345.88;;;37.25;22.30
59493;BME280;45497;43.996;22.876;2022-09-16T07:31:34;100341.06;;;37.06;22.65
59493;BME280;45497;43.996;22.876;2022-09-16T07:34:01;100348.47;;;37.02;23.65
59493;BME280;45497;43.996;22.876;2022-09-16T07:36:30;100345.38;;;36.87;22.85
59493;BME280;45497;43.996;22.876;2022-09-16T07:38:57;100347.34;;;36.71;23.06
59493;BME280;45497;43.996;22.876;2022-09-16T07:41:26;100347.38;;;36.59;23.80
59493;BME280;45497;43.996;22.876;2022-09-16T07:43:53;100350.22;;;36.46;23.61
59493;BME280;45497;43.996;22.876;2022-09-16T07:46:19;100351.53;;;36.21;24.16
59493;BME280;45497;43.996;22.876;2022-09-16T07:48:47;100356.06;;;35.72;24.26
59493;BME280;45497;43.996;22.876;2022-09-16T07:51:16;100354.06;;;35.20;25.17
59493;BME280;45497;43.996;22.876;2022-09-16T07:53:44;100358.44;;;35.09;25.09
59493;BME280;45497;43.996;22.876;2022-09-16T07:56:13;100359.69;;;34.74;25.28
59493;BME280;45497;43.996;22.876;2022-09-16T07:58:40;100353.97;;;34.46;25.98
59493;BME280;45497;43.996;22.876;2022-09-16T08:01:06;100362.78;;;34.39;26.31
59493;BME280;45497;43.996;22.876;2022-09-16T08:03:36;100372.31;;;34.42;26.16
59493;BME280;45497;43.996;22.876;2022-09-16T08:06:22;100366.56;;;34.35;26.40
59493;BME280;45497;43.996;22.876;2022-09-16T08:08:50;100361.53;;;34.16;26.52
59493;BME280;45497;43.996;22.876;2022-09-16T08:11:17;100359.22;;;34.05;26.94
59493;BME280;45497;43.996;22.876;2022-09-16T08:13:42;100352.50;;;33.94;27.09
59493;BME280;45497;43.996;22.876;2022-09-16T08:16:16;100351.78;;;33.64;27.19
59493;BME280;45497;43.996;22.876;2022-09-16T08:18:43;100356.31;;;33.39;27.49
59493;BME280;45497;43.996;22.876;2022-09-16T08:21:15;100358.38;;;33.12;28.32
59493;BME280;45497;43.996;22.876;2022-09-16T08:23:41;100350.53;;;32.93;28.55
59493;BME280;45497;43.996;22.876;2022-09-16T08:26:07;100349.16;;;32.78;28.88
59493;BME280;45497;43.996;22.876;2022-09-16T08:28:36;100352.09;;;32.64;28.85
59493;BME280;45497;43.996;22.876;2022-09-16T08:31:02;100353.72;;;32.48;29.88
59493;BME280;45497;43.996;22.876;2022-09-16T08:33:28;100362.97;;;32.43;29.79
59493;BME280;45497;43.996;22.876;2022-09-16T08:36:02;100353.13;;;32.33;30.12
59493;BME280;45497;43.996;22.876;2022-09-16T08:38:29;100349.28;;;32.17;29.73
59493;BME280;45497;43.996;22.876;2022-09-16T08:41:54;100348.63;;;32.11;29.80
59493;BME280;45497;43.996;22.876;2022-09-16T08:49:38;100336.38;;;31.91;30.12
59493;BME280;45497;43.996;22.876;2022-09-16T08:52:10;100323.94;;;31.94;30.52
59493;BME280;45497;43.996;22.876;2022-09-16T08:54:42;100324.56;;;31.99;30.07
59493;BME280;45497;43.996;22.876;2022-09-16T08:57:16;100319.44;;;32.07;31.05
59493;BME280;45497;43.996;22.876;2022-09-16T08:59:51;100328.66;;;32.11;30.69
59493;BME280;45497;43.996;22.876;2022-09-16T09:04:52;100320.91;;;32.04;30.69
59493;BME280;45497;43.996;22.876;2022-09-16T09:07:25;100326.88;;;32.06;30.37
59493;BME280;45497;43.996;22.876;2022-09-16T09:10:24;100327.66;;;32.07;30.65
59493;BME280;45497;43.996;22.876;2022-09-16T09:18:44;100322.78;;;32.38;30.03
59493;BME280;45497;43.996;22.876;2022-09-16T09:21:26;100326.63;;;32.46;29.94
59493;BME280;45497;43.996;22.876;2022-09-16T09:23:59;100318.38;;;32.46;29.30
59493;BME280;45497;43.996;22.876;2022-09-16T09:26:50;100319.16;;;32.55;29.52
59493;BME280;45497;43.996;22.876;2022-09-16T09:32:30;100313.31;;;32.74;29.24
59493;BME280;45497;43.996;22.876;2022-09-16T09:35:05;100314.56;;;32.86;29.06
59493;BME280;45497;43.996;22.876;2022-09-16T09:40:20;100310.94;;;33.03;28.89
59493;BME280;45497;43.996;22.876;2022-09-16T09:43:15;100311.84;;;33.16;28.84
59493;BME280;45497;43.996;22.876;2022-09-16T09:45:55;100313.84;;;33.27;28.86
59493;BME280;45497;43.996;22.876;2022-09-16T09:48:26;100309.97;;;33.28;28.37
59493;BME280;45497;43.996;22.876;2022-09-16T09:50:55;100309.97;;;33.28;28.38
59493;BME280;45497;43.996;22.876;2022-09-16T09:53:33;100317.00;;;33.38;28.07
59493;BME280;45497;43.996;22.876;2022-09-16T09:56:19;100310.59;;;33.34;27.70
59493;BME280;45497;43.996;22.876;2022-09-16T10:01:18;100300.88;;;33.37;27.19
59493;BME280;45497;43.996;22.876;2022-09-16T10:04:00;100307.66;;;33.39;27.16
59493;BME280;45497;43.996;22.876;2022-09-16T10:06:29;100297.13;;;33.41;27.49
59493;BME280;45497;43.996;22.876;2022-09-16T10:08:57;100292.09;;;33.43;27.21
59493;BME280;45497;43.996;22.876;2022-09-16T10:11:26;100295.44;;;33.49;27.64
59493;BME280;45497;43.996;22.876;2022-09-16T10:13:54;100289.63;;;33.50;27.03
59493;BME280;45497;43.996;22.876;2022-09-16T10:16:21;100283.47;;;33.53;27.36
59493;BME280;45497;43.996;22.876;2022-09-16T10:19:02;100277.16;;;33.53;27.20
59493;BME280;45497;43.996;22.876;2022-09-16T10:21:48;100278.81;;;33.45;27.41
59493;BME280;45497;43.996;22.876;2022-09-16T10:24:33;100273.00;;;33.47;27.47
59493;BME280;45497;43.996;22.876;2022-09-16T10:27:00;100267.03;;;33.45;27.16
59493;BME280;45497;43.996;22.876;2022-09-16T10:29:26;100270.13;;;33.43;27.55
59493;BME280;45497;43.996;22.876;2022-09-16T10:31:53;100271.72;;;33.44;27.63
59493;BME280;45497;43.996;22.876;2022-09-16T10:36:58;100268.72;;;33.37;27.77
59493;BME280;45497;43.996;22.876;2022-09-16T10:39:26;100262.41;;;33.37;27.55
59493;BME280;45497;43.996;22.876;2022-09-16T10:41:52;100262.91;;;33.39;27.94
59493;BME280;45497;43.996;22.876;2022-09-16T10:44:29;100261.28;;;33.38;27.64
59493;BME280;45497;43.996;22.876;2022-09-16T10:47:04;100250.47;;;33.32;28.05
59493;BME280;45497;43.996;22.876;2022-09-16T10:49:56;100252.69;;;33.39;27.89
59493;BME280;45497;43.996;22.876;2022-09-16T10:52:27;100239.88;;;33.43;28.31
59493;BME280;45497;43.996;22.876;2022-09-16T10:54:53;100229.03;;;33.47;28.27
59493;BME280;45497;43.996;22.876;2022-09-16T10:57:20;100224.31;;;33.47;28.51
59493;BME280;45497;43.996;22.876;2022-09-16T11:08:35;100206.47;;;33.41;27.42
59493;BME280;45497;43.996;22.876;2022-09-16T11:22:51;100207.50;;;33.07;28.61
59493;BME280;45497;43.996;22.876;2022-09-16T11:42:13;100189.88;;;32.87;29.47
59493;BME280;45497;43.996;22.876;2022-09-16T11:50:35;100191.63;;;32.91;29.59
59493;BME280;45497;43.996;22.876;2022-09-16T11:56:20;100174.41;;;32.82;30.02
59493;BME280;45497;43.996;22.876;2022-09-16T11:58:52;100168.91;;;32.82;29.96
59493;BME280;45497;43.996;22.876;2022-09-16T12:05:17;100170.06;;;32.81;29.77
59493;BME280;45497;43.996;22.876;2022-09-16T12:07:16;100158.50;;;32.75;29.62
59493;BME280;45497;43.996;22.876;2022-09-16T12:10:13;100157.19;;;32.73;30.01
59493;BME280;45497;43.996;22.876;2022-09-16T12:12:49;100150.63;;;32.65;30.37
59493;BME280;45497;43.996;22.876;2022-09-16T12:15:31;100153.97;;;32.41;31.27
59493;BME280;45497;43.996;22.876;2022-09-16T12:18:05;100149.31;;;32.42;31.47
59493;BME280;45497;43.996;22.876;2022-09-16T12:20:37;100154.25;;;32.48;31.28
59493;BME280;45497;43.996;22.876;2022-09-16T12:23:17;100148.41;;;32.58;30.83
59493;BME280;45497;43.996;22.876;2022-09-16T12:28:51;100136.19;;;32.47;31.03
59493;BME280;45497;43.996;22.876;2022-09-16T12:31:28;100145.94;;;32.36;31.25
59493;BME280;45497;43.996;22.876;2022-09-16T12:33:58;100146.13;;;32.31;31.61
59493;BME280;45497;43.996;22.876;2022-09-16T12:36:34;100141.91;;;32.33;31.33
59493;BME280;45497;43.996;22.876;2022-09-16T12:39:02;100143.53;;;32.34;31.92
59493;BME280;45497;43.996;22.876;2022-09-16T12:57:50;100162.16;;;32.20;31.96
59493;BME280;45497;43.996;22.876;2022-09-16T13:01:09;100160.88;;;32.09;31.42
59493;BME280;45497;43.996;22.876;2022-09-16T13:06:44;100154.94;;;32.07;31.74
59493;BME280;45497;43.996;22.876;2022-09-16T13:09:37;100148.31;;;31.99;31.75
59493;BME280;45497;43.996;22.876;2022-09-16T13:12:21;100140.75;;;31.96;31.93
59493;BME280;45497;43.996;22.876;2022-09-16T13:14:52;100145.44;;;31.95;31.95
59493;BME280;45497;43.996;22.876;2022-09-16T13:17:32;100134.97;;;31.89;32.06
59493;BME280;45497;43.996;22.876;2022-09-16T13:25:21;100127.16;;;31.61;30.24
59493;BME280;45497;43.996;22.876;2022-09-16T13:28:02;100116.38;;;31.56;30.41
59493;BME280;45497;43.996;22.876;2022-09-16T13:35:42;100118.16;;;31.52;30.42
59493;BME280;45497;43.996;22.876;2022-09-16T13:38:35;100116.53;;;31.51;30.69
59493;BME280;45497;43.996;22.876;2022-09-16T13:41:02;100120.41;;;31.41;30.51
59493;BME280;45497;43.996;22.876;2022-09-16T13:46:25;100121.69;;;31.35;30.68
59493;BME280;45497;43.996;22.876;2022-09-16T13:48:57;100106.72;;;31.41;31.04
59493;BME280;45497;43.996;22.876;2022-09-16T13:51:24;100107.84;;;31.40;30.79
59493;BME280;45497;43.996;22.876;2022-09-16T13:53:50;100106.72;;;31.32;30.36
59493;BME280;45497;43.996;22.876;2022-09-16T13:56:29;100103.34;;;31.27;30.77
59493;BME280;45497;43.996;22.876;2022-09-16T14:01:36;100120.28;;;31.20;30.98
59493;BME280;45497;43.996;22.876;2022-09-16T14:06:53;100117.22;;;31.21;31.24
59493;BME280;45497;43.996;22.876;2022-09-16T14:09:40;100109.31;;;31.20;31.26
59493;BME280;45497;43.996;22.876;2022-09-16T14:12:27;100104.66;;;31.12;31.04
59493;BME280;45497;43.996;22.876;2022-09-16T14:14:57;100107.25;;;31.08;31.11
59493;BME280;45497;43.996;22.876;2022-09-16T14:17:45;100095.47;;;30.99;30.93
59493;BME280;45497;43.996;22.876;2022-09-16T14:20:14;100102.72;;;30.95;31.06
59493;BME280;45497;43.996;22.876;2022-09-16T14:22:41;100100.13;;;30.90;31.07
59493;BME280;45497;43.996;22.876;2022-09-16T14:25:31;100094.66;;;30.90;31.11
59493;BME280;45497;43.996;22.876;2022-09-16T14:33:25;100098.84;;;30.78;31.69
59493;BME280;45497;43.996;22.876;2022-09-16T14:35:53;100106.56;;;30.76;31.97
59493;BME280;45497;43.996;22.876;2022-09-16T14:40:27;100099.94;;;30.60;31.94
59493;BME280;45497;43.996;22.876;2022-09-16T14:42:59;100112.63;;;30.56;32.58
59493;BME280;45497;43.996;22.876;2022-09-16T14:45:28;100125.81;;;30.54;32.60
59493;BME280;45497;43.996;22.876;2022-09-16T14:47:55;100122.59;;;30.52;32.62
59493;BME280;45497;43.996;22.876;2022-09-16T14:50:27;100104.59;;;30.42;32.31
59493;BME280;45497;43.996;22.876;2022-09-16T14:52:57;100106.16;;;30.34;32.25
59493;BME280;45497;43.996;22.876;2022-09-16T14:55:31;100100.00;;;30.28;32.04
59493;BME280;45497;43.996;22.876;2022-09-16T14:58:00;100079.91;;;30.24;31.86
59493;BME280;45497;43.996;22.876;2022-09-16T15:00:41;100073.63;;;30.24;32.23
59493;BME280;45497;43.996;22.876;2022-09-16T15:05:45;100060.25;;;30.14;31.50
59493;BME280;45497;43.996;22.876;2022-09-16T15:08:37;100054.16;;;30.17;31.85
59493;BME280;45497;43.996;22.876;2022-09-16T15:11:11;100040.50;;;30.17;31.61
59493;BME280;45497;43.996;22.876;2022-09-16T15:14:05;100014.56;;;30.14;32.10
59493;BME280;45497;43.996;22.876;2022-09-16T15:16:48;100033.41;;;30.16;31.91
59493;BME280;45497;43.996;22.876;2022-09-16T15:19:23;100031.50;;;30.16;31.27
59493;BME280;45497;43.996;22.876;2022-09-16T15:21:49;100036.31;;;30.19;31.44
59493;BME280;45497;43.996;22.876;2022-09-16T15:24:23;100048.53;;;30.22;30.86
59493;BME280;45497;43.996;22.876;2022-09-16T15:26:53;100047.09;;;30.24;30.89
59493;BME280;45497;43.996;22.876;2022-09-16T15:31:45;100042.59;;;30.28;30.75
59493;BME280;45497;43.996;22.876;2022-09-16T15:36:44;100051.91;;;30.19;30.46
59493;BME280;45497;43.996;22.876;2022-09-16T15:39:27;100046.56;;;30.14;30.32
59493;BME280;45497;43.996;22.876;2022-09-16T15:42:20;100049.16;;;30.10;30.17
59493;BME280;45497;43.996;22.876;2022-09-16T15:44:53;100026.78;;;30.08;29.87
59493;BME280;45497;43.996;22.876;2022-09-16T15:47:26;100017.31;;;30.05;30.15
59493;BME280;45497;43.996;22.876;2022-09-16T15:50:06;100010.69;;;29.98;30.27
59493;BME280;45497;43.996;22.876;2022-09-16T15:55:28;100014.03;;;29.86;30.09
59493;BME280;45497;43.996;22.876;2022-09-16T15:58:00;100014.97;;;29.81;29.86
59493;BME280;45497;43.996;22.876;2022-09-16T16:00:27;100023.00;;;29.78;29.54
59493;BME280;45497;43.996;22.876;2022-09-16T16:02:57;100026.16;;;29.71;29.57
59493;BME280;45497;43.996;22.876;2022-09-16T16:05:27;100025.19;;;29.67;29.65
59493;BME280;45497;43.996;22.876;2022-09-16T16:07:59;100028.22;;;29.65;29.54
59493;BME280;45497;43.996;22.876;2022-09-16T16:10:32;100019.22;;;29.65;29.83
59493;BME280;45497;43.996;22.876;2022-09-16T16:13:01;100025.31;;;29.62;29.93
59493;BME280;45497;43.996;22.876;2022-09-16T16:15:32;100018.22;;;29.52;30.41
59493;BME280;45497;43.996;22.876;2022-09-16T16:18:00;100025.44;;;29.48;30.20
59493;BME280;45497;43.996;22.876;2022-09-16T16:20:26;100020.91;;;29.43;30.45
59493;BME280;45497;43.996;22.876;2022-09-16T16:22:53;100014.28;;;29.35;30.65
59493;BME280;45497;43.996;22.876;2022-09-16T16:25:18;100010.06;;;29.29;30.61